sensor_id;sensor_type;location;lat;lon;timestamp;temperature;humidity
57636;DHT22;43465;50.728;4.160;2022-10-31T00:02:08;16.30;99.90
57636;DHT22;43465;50.728;4.160;2022-10-31T00:04:33;16.40;99.90
57636;DHT22;43465;50.728;4.160;2022-10-31T00:06:59;16.30;99.90
57636;DHT22;43465;50.728;4.160;2022-10-31T00:09:25;16.30;99.90
57636;DHT22;43465;50.728;4.160;2022-10-31T00:11:50;16.30;99.90
57636;DHT22;43465;50.728;4.160;2022-10-31T00:14:16;16.40;99.90
57636;DHT22;43465;50.728;4.160;2022-10-31T00:16:41;16.40;99.90
57636;DHT22;43465;50.728;4.160;2022-10-31T00:19:07;16.40;99.90
57636;DHT22;43465;50.728;4.160;2022-10-31T00:21:34;16.30;99.90
57636;DHT22;43465;50.728;4.160;2022-10-31T00:24:00;16.30;99.90
57636;DHT22;43465;50.728;4.160;2022-10-31T00:26:27;16.30;99.90
57636;DHT22;43465;50.728;4.160;2022-10-31T00:28:53;16.30;99.90
57636;DHT22;43465;50.728;4.160;2022-10-31T00:31:19;16.20;99.90
57636;DHT22;43465;50.728;4.160;2022-10-31T00:33:44;16.20;99.90
57636;DHT22;43465;50.728;4.160;2022-10-31T00:36:14;16.10;99.90
57636;DHT22;43465;50.728;4.160;2022-10-31T00:38:40;16.10;99.90
57636;DHT22;43465;50.728;4.160;2022-10-31T00:41:06;16.10;99.90
57636;DHT22;43465;50.728;4.160;2022-10-31T00:43:31;16.10;99.90
57636;DHT22;43465;50.728;4.160;2022-10-31T00:45:57;16.10;99.90
57636;DHT22;43465;50.728;4.160;2022-10-31T00:48:23;16.10;99.90
57636;DHT22;43465;50.728;4.160;2022-10-31T00:50:48;16.00;99.90
57636;DHT22;43465;50.728;4.160;2022-10-31T00:53:14;16.00;99.90
57636;DHT22;43465;50.728;4.160;2022-10-31T00:55:39;16.00;99.90
57636;DHT22;43465;50.728;4.160;2022-10-31T00:58:05;15.90;99.90
57636;DHT22;43465;50.728;4.160;2022-10-31T01:00:30;15.90;99.90
57636;DHT22;43465;50.728;4.160;2022-10-31T01:02:56;15.80;99.90
57636;DHT22;43465;50.728;4.160;2022-10-31T01:05:22;15.80;99.90
57636;DHT22;43465;50.728;4.160;2022-10-31T01:07:48;15.80;99.90
57636;DHT22;43465;50.728;4.160;2022-10-31T01:10:13;15.80;99.90
57636;DHT22;43465;50.728;4.160;2022-10-31T01:12:40;15.80;99.90
57636;DHT22;43465;50.728;4.160;2022-10-31T01:15:07;15.80;99.90
57636;DHT22;43465;50.728;4.160;2022-10-31T01:17:33;15.80;99.90
57636;DHT22;43465;50.728;4.160;2022-10-31T01:19:59;15.80;99.90
57636;DHT22;43465;50.728;4.160;2022-10-31T01:22:25;15.80;99.90
57636;DHT22;43465;50.728;4.160;2022-10-31T01:24:50;15.80;99.90
57636;DHT22;43465;50.728;4.160;2022-10-31T01:27:16;15.70;99.90
57636;DHT22;43465;50.728;4.160;2022-10-31T01:29:41;15.70;99.90
57636;DHT22;43465;50.728;4.160;2022-10-31T01:32:07;15.70;99.90
57636;DHT22;43465;50.728;4.160;2022-10-31T01:34:32;15.70;99.90
57636;DHT22;43465;50.728;4.160;2022-10-31T01:36:58;15.70;99.90
57636;DHT22;43465;50.728;4.160;2022-10-31T01:39:24;15.60;99.90
57636;DHT22;43465;50.728;4.160;2022-10-31T01:41:51;15.60;99.90
57636;DHT22;43465;50.728;4.160;2022-10-31T01:46:59;15.60;99.90
57636;DHT22;43465;50.728;4.160;2022-10-31T01:49:36;15.60;99.90
57636;DHT22;43465;50.728;4.160;2022-10-31T01:52:16;15.60;99.90
57636;DHT22;43465;50.728;4.160;2022-10-31T01:54:47;15.50;99.90
57636;DHT22;43465;50.728;4.160;2022-10-31T01:57:14;15.50;99.90
57636;DHT22;43465;50.728;4.160;2022-10-31T01:59:45;15.50;99.90
57636;DHT22;43465;50.728;4.160;2022-10-31T02:02:12;15.50;99.90
57636;DHT22;43465;50.728;4.160;2022-10-31T02:04:39;15.50;99.90
57636;DHT22;43465;50.728;4.160;2022-10-31T02:07:14;15.50;99.90
57636;DHT22;43465;50.728;4.160;2022-10-31T02:09:42;15.50;99.90
57636;DHT22;43465;50.728;4.160;2022-10-31T02:12:10;15.50;99.90
57636;DHT22;43465;50.728;4.160;2022-10-31T02:14:36;15.50;99.90
57636;DHT22;43465;50.728;4.160;2022-10-31T02:17:02;15.50;99.90
57636;DHT22;43465;50.728;4.160;2022-10-31T02:25:02;15.40;99.90
57636;DHT22;43465;50.728;4.160;2022-10-31T02:30:21;15.40;99.90
57636;DHT22;43465;50.728;4.160;2022-10-31T02:36:10;15.40;99.90
57636;DHT22;43465;50.728;4.160;2022-10-31T02:46:49;15.30;99.90
57636;DHT22;43465;50.728;4.160;2022-10-31T02:52:02;15.30;99.90
57636;DHT22;43465;50.728;4.160;2022-10-31T02:54:38;15.30;99.90
57636;DHT22;43465;50.728;4.160;2022-10-31T02:57:06;15.30;99.90
57636;DHT22;43465;50.728;4.160;2022-10-31T02:59:35;15.20;99.90
57636;DHT22;43465;50.728;4.160;2022-10-31T03:02:23;15.20;99.90
57636;DHT22;43465;50.728;4.160;2022-10-31T03:11:03;15.20;99.90
57636;DHT22;43465;50.728;4.160;2022-10-31T03:13:43;15.20;99.90
57636;DHT22;43465;50.728;4.160;2022-10-31T03:16:20;15.20;99.90
57636;DHT22;43465;50.728;4.160;2022-10-31T03:19:01;15.10;99.90
57636;DHT22;43465;50.728;4.160;2022-10-31T03:21:44;15.10;99.90
57636;DHT22;43465;50.728;4.160;2022-10-31T03:24:11;15.10;99.90
57636;DHT22;43465;50.728;4.160;2022-10-31T03:26:41;15.10;99.90
57636;DHT22;43465;50.728;4.160;2022-10-31T03:29:11;15.10;99.90
57636;DHT22;43465;50.728;4.160;2022-10-31T03:31:44;15.10;99.90
57636;DHT22;43465;50.728;4.160;2022-10-31T03:34:12;15.10;99.90
57636;DHT22;43465;50.728;4.160;2022-10-31T03:36:40;15.10;99.90
57636;DHT22;43465;50.728;4.160;2022-10-31T03:39:08;15.10;99.90
57636;DHT22;43465;50.728;4.160;2022-10-31T03:41:40;15.10;99.90
57636;DHT22;43465;50.728;4.160;2022-10-31T03:44:14;15.00;99.90
57636;DHT22;43465;50.728;4.160;2022-10-31T03:46:42;15.10;99.90
57636;DHT22;43465;50.728;4.160;2022-10-31T03:49:08;15.00;99.90
57636;DHT22;43465;50.728;4.160;2022-10-31T03:52:13;14.80;99.90
57636;DHT22;43465;50.728;4.160;2022-10-31T03:54:52;14.80;99.90
57636;DHT22;43465;50.728;4.160;2022-10-31T03:57:28;14.80;99.90
57636;DHT22;43465;50.728;4.160;2022-10-31T04:02:33;14.60;99.90
57636;DHT22;43465;50.728;4.160;2022-10-31T04:05:03;14.60;99.90
57636;DHT22;43465;50.728;4.160;2022-10-31T04:07:34;14.60;99.90
57636;DHT22;43465;50.728;4.160;2022-10-31T04:10:05;14.60;99.90
57636;DHT22;43465;50.728;4.160;2022-10-31T04:12:34;14.70;99.90
57636;DHT22;43465;50.728;4.160;2022-10-31T04:15:02;14.80;99.90
57636;DHT22;43465;50.728;4.160;2022-10-31T04:17:31;14.70;99.90
57636;DHT22;43465;50.728;4.160;2022-10-31T04:19:59;14.70;99.90
57636;DHT22;43465;50.728;4.160;2022-10-31T04:22:25;14.70;99.90
57636;DHT22;43465;50.728;4.160;2022-10-31T04:24:51;14.80;99.90
57636;DHT22;43465;50.728;4.160;2022-10-31T04:27:17;14.80;99.90
57636;DHT22;43465;50.728;4.160;2022-10-31T04:29:42;14.70;99.90
57636;DHT22;43465;50.728;4.160;2022-10-31T04:32:08;14.70;99.90
57636;DHT22;43465;50.728;4.160;2022-10-31T04:34:33;14.70;99.90
57636;DHT22;43465;50.728;4.160;2022-10-31T04:37:00;14.70;99.90
57636;DHT22;43465;50.728;4.160;2022-10-31T04:39:26;14.70;99.90
57636;DHT22;43465;50.728;4.160;2022-10-31T04:41:51;14.70;99.90
57636;DHT22;43465;50.728;4.160;2022-10-31T04:44:17;14.70;99.90
57636;DHT22;43465;50.728;4.160;2022-10-31T04:46:43;14.70;99.90
57636;DHT22;43465;50.728;4.160;2022-10-31T04:49:08;14.70;99.90
57636;DHT22;43465;50.728;4.160;2022-10-31T04:51:34;14.70;99.90
57636;DHT22;43465;50.728;4.160;2022-10-31T04:53:59;14.70;99.90
57636;DHT22;43465;50.728;4.160;2022-10-31T04:56:25;14.70;99.90
57636;DHT22;43465;50.728;4.160;2022-10-31T04:58:51;14.70;99.90
57636;DHT22;43465;50.728;4.160;2022-10-31T05:01:16;14.70;99.90
57636;DHT22;43465;50.728;4.160;2022-10-31T05:03:42;14.80;99.90
57636;DHT22;43465;50.728;4.160;2022-10-31T05:06:08;14.80;99.90
57636;DHT22;43465;50.728;4.160;2022-10-31T05:08:34;14.80;99.90
57636;DHT22;43465;50.728;4.160;2022-10-31T05:11:00;14.80;99.90
57636;DHT22;43465;50.728;4.160;2022-10-31T05:13:27;14.70;99.90
57636;DHT22;43465;50.728;4.160;2022-10-31T05:15:52;14.70;99.90
57636;DHT22;43465;50.728;4.160;2022-10-31T05:18:18;14.80;99.90
57636;DHT22;43465;50.728;4.160;2022-10-31T05:20:44;14.70;99.90
57636;DHT22;43465;50.728;4.160;2022-10-31T05:23:09;14.70;99.90
57636;DHT22;43465;50.728;4.160;2022-10-31T05:25:35;14.60;99.90
57636;DHT22;43465;50.728;4.160;2022-10-31T05:28:01;14.50;99.90
57636;DHT22;43465;50.728;4.160;2022-10-31T05:30:29;14.50;99.90
57636;DHT22;43465;50.728;4.160;2022-10-31T05:32:55;14.50;99.90
57636;DHT22;43465;50.728;4.160;2022-10-31T05:35:23;14.60;99.90
57636;DHT22;43465;50.728;4.160;2022-10-31T05:37:49;14.70;99.90
57636;DHT22;43465;50.728;4.160;2022-10-31T05:40:16;14.80;99.90
57636;DHT22;43465;50.728;4.160;2022-10-31T05:42:43;14.90;99.90
57636;DHT22;43465;50.728;4.160;2022-10-31T05:45:14;14.90;99.90
57636;DHT22;43465;50.728;4.160;2022-10-31T05:47:40;14.90;99.90
57636;DHT22;43465;50.728;4.160;2022-10-31T05:50:07;14.90;99.90
57636;DHT22;43465;50.728;4.160;2022-10-31T05:52:33;14.80;99.90
57636;DHT22;43465;50.728;4.160;2022-10-31T05:54:59;14.70;99.90
57636;DHT22;43465;50.728;4.160;2022-10-31T05:57:24;14.70;99.90
57636;DHT22;43465;50.728;4.160;2022-10-31T05:59:50;14.80;99.90
57636;DHT22;43465;50.728;4.160;2022-10-31T06:02:20;14.80;99.90
57636;DHT22;43465;50.728;4.160;2022-10-31T06:04:45;14.70;99.90
57636;DHT22;43465;50.728;4.160;2022-10-31T06:07:11;14.80;99.90
57636;DHT22;43465;50.728;4.160;2022-10-31T06:09:36;14.90;99.90
57636;DHT22;43465;50.728;4.160;2022-10-31T06:12:02;14.80;99.90
57636;DHT22;43465;50.728;4.160;2022-10-31T06:14:28;14.80;99.90
57636;DHT22;43465;50.728;4.160;2022-10-31T06:16:57;14.70;99.90
57636;DHT22;43465;50.728;4.160;2022-10-31T06:19:22;14.70;99.90
57636;DHT22;43465;50.728;4.160;2022-10-31T06:21:48;14.70;99.90
57636;DHT22;43465;50.728;4.160;2022-10-31T06:24:13;14.80;99.90
57636;DHT22;43465;50.728;4.160;2022-10-31T06:26:40;14.90;99.90
57636;DHT22;43465;50.728;4.160;2022-10-31T06:29:06;14.90;99.90
57636;DHT22;43465;50.728;4.160;2022-10-31T06:31:32;15.00;99.90
57636;DHT22;43465;50.728;4.160;2022-10-31T06:33:57;15.00;99.90
57636;DHT22;43465;50.728;4.160;2022-10-31T06:36:23;15.00;99.90
57636;DHT22;43465;50.728;4.160;2022-10-31T06:38:48;15.00;99.90
57636;DHT22;43465;50.728;4.160;2022-10-31T06:41:14;15.00;99.90
57636;DHT22;43465;50.728;4.160;2022-10-31T06:43:40;15.00;99.90
57636;DHT22;43465;50.728;4.160;2022-10-31T06:46:05;15.00;99.90
57636;DHT22;43465;50.728;4.160;2022-10-31T06:48:32;15.10;99.90
57636;DHT22;43465;50.728;4.160;2022-10-31T06:51:01;15.10;99.90
57636;DHT22;43465;50.728;4.160;2022-10-31T06:53:28;15.10;99.90
57636;DHT22;43465;50.728;4.160;2022-10-31T06:55:56;15.10;99.90
57636;DHT22;43465;50.728;4.160;2022-10-31T06:58:22;15.10;99.90
57636;DHT22;43465;50.728;4.160;2022-10-31T07:00:48;15.10;99.90
57636;DHT22;43465;50.728;4.160;2022-10-31T07:03:15;15.10;99.90
57636;DHT22;43465;50.728;4.160;2022-10-31T07:05:41;15.10;99.90
57636;DHT22;43465;50.728;4.160;2022-10-31T07:08:10;15.10;99.90
57636;DHT22;43465;50.728;4.160;2022-10-31T07:10:37;15.10;99.90
57636;DHT22;43465;50.728;4.160;2022-10-31T07:13:05;15.20;99.90
57636;DHT22;43465;50.728;4.160;2022-10-31T07:15:37;15.30;99.90
57636;DHT22;43465;50.728;4.160;2022-10-31T07:18:04;15.40;99.90
57636;DHT22;43465;50.728;4.160;2022-10-31T07:20:31;15.40;99.90
57636;DHT22;43465;50.728;4.160;2022-10-31T07:22:57;15.40;99.90
57636;DHT22;43465;50.728;4.160;2022-10-31T07:25:23;15.40;99.90
57636;DHT22;43465;50.728;4.160;2022-10-31T07:27:49;15.40;99.90
57636;DHT22;43465;50.728;4.160;2022-10-31T07:30:15;15.40;99.90
57636;DHT22;43465;50.728;4.160;2022-10-31T07:32:45;15.40;99.90
57636;DHT22;43465;50.728;4.160;2022-10-31T07:35:13;15.40;99.90
57636;DHT22;43465;50.728;4.160;2022-10-31T07:37:39;15.40;99.90
57636;DHT22;43465;50.728;4.160;2022-10-31T07:40:06;15.30;99.90
57636;DHT22;43465;50.728;4.160;2022-10-31T07:42:43;15.30;99.90
57636;DHT22;43465;50.728;4.160;2022-10-31T07:45:16;15.40;99.90
57636;DHT22;43465;50.728;4.160;2022-10-31T07:47:44;15.40;99.90
57636;DHT22;43465;50.728;4.160;2022-10-31T07:50:15;15.30;99.90
57636;DHT22;43465;50.728;4.160;2022-10-31T07:52:41;15.30;99.90
57636;DHT22;43465;50.728;4.160;2022-10-31T07:55:07;15.30;99.90
57636;DHT22;43465;50.728;4.160;2022-10-31T07:57:33;15.30;99.90
57636;DHT22;43465;50.728;4.160;2022-10-31T07:59:59;15.30;99.90
57636;DHT22;43465;50.728;4.160;2022-10-31T08:02:25;15.30;99.90
57636;DHT22;43465;50.728;4.160;2022-10-31T08:04:51;15.30;99.90
57636;DHT22;43465;50.728;4.160;2022-10-31T08:07:17;15.30;99.90
57636;DHT22;43465;50.728;4.160;2022-10-31T08:09:43;15.40;99.90
57636;DHT22;43465;50.728;4.160;2022-10-31T08:12:08;15.40;99.90
57636;DHT22;43465;50.728;4.160;2022-10-31T08:14:34;15.50;99.90
57636;DHT22;43465;50.728;4.160;2022-10-31T08:16:59;15.50;99.90
57636;DHT22;43465;50.728;4.160;2022-10-31T08:19:25;15.50;99.90
57636;DHT22;43465;50.728;4.160;2022-10-31T08:21:51;15.50;99.90
57636;DHT22;43465;50.728;4.160;2022-10-31T08:24:18;15.50;99.90
57636;DHT22;43465;50.728;4.160;2022-10-31T08:26:43;15.60;99.90
57636;DHT22;43465;50.728;4.160;2022-10-31T08:29:09;15.60;99.90
57636;DHT22;43465;50.728;4.160;2022-10-31T08:31:35;15.60;99.90
57636;DHT22;43465;50.728;4.160;2022-10-31T08:34:00;15.70;99.90
57636;DHT22;43465;50.728;4.160;2022-10-31T08:36:27;15.70;99.90
57636;DHT22;43465;50.728;4.160;2022-10-31T08:38:52;15.70;99.90
57636;DHT22;43465;50.728;4.160;2022-10-31T08:41:18;15.80;99.90
57636;DHT22;43465;50.728;4.160;2022-10-31T08:43:44;15.80;99.90
57636;DHT22;43465;50.728;4.160;2022-10-31T08:46:10;15.90;99.90
57636;DHT22;43465;50.728;4.160;2022-10-31T08:48:35;15.90;99.90
57636;DHT22;43465;50.728;4.160;2022-10-31T08:51:01;15.90;99.90
57636;DHT22;43465;50.728;4.160;2022-10-31T08:53:27;15.90;99.90
57636;DHT22;43465;50.728;4.160;2022-10-31T08:55:55;16.00;99.90
57636;DHT22;43465;50.728;4.160;2022-10-31T08:58:22;16.00;99.90
57636;DHT22;43465;50.728;4.160;2022-10-31T09:00:51;16.10;99.90
57636;DHT22;43465;50.728;4.160;2022-10-31T09:03:22;16.10;99.90
57636;DHT22;43465;50.728;4.160;2022-10-31T09:05:49;16.10;99.90
57636;DHT22;43465;50.728;4.160;2022-10-31T09:08:15;16.10;99.90
57636;DHT22;43465;50.728;4.160;2022-10-31T09:10:41;16.20;99.90
57636;DHT22;43465;50.728;4.160;2022-10-31T09:13:15;16.20;99.90
57636;DHT22;43465;50.728;4.160;2022-10-31T09:15:42;16.30;99.90
57636;DHT22;43465;50.728;4.160;2022-10-31T09:18:10;16.30;99.90
57636;DHT22;43465;50.728;4.160;2022-10-31T09:20:36;16.40;99.90
57636;DHT22;43465;50.728;4.160;2022-10-31T09:23:05;16.50;99.90
57636;DHT22;43465;50.728;4.160;2022-10-31T09:25:32;16.50;99.90
57636;DHT22;43465;50.728;4.160;2022-10-31T09:27:59;16.60;99.90
57636;DHT22;43465;50.728;4.160;2022-10-31T09:30:29;16.60;99.90
57636;DHT22;43465;50.728;4.160;2022-10-31T09:33:04;16.60;99.90
57636;DHT22;43465;50.728;4.160;2022-10-31T09:35:30;16.70;99.90
57636;DHT22;43465;50.728;4.160;2022-10-31T09:37:57;16.70;99.90
57636;DHT22;43465;50.728;4.160;2022-10-31T09:43:26;16.80;99.90
57636;DHT22;43465;50.728;4.160;2022-10-31T09:46:12;16.80;99.90
57636;DHT22;43465;50.728;4.160;2022-10-31T09:51:20;16.80;99.90
57636;DHT22;43465;50.728;4.160;2022-10-31T09:56:15;16.90;99.90
57636;DHT22;43465;50.728;4.160;2022-10-31T09:58:47;16.90;99.90
57636;DHT22;43465;50.728;4.160;2022-10-31T10:04:41;17.00;99.90
57636;DHT22;43465;50.728;4.160;2022-10-31T10:09:49;17.10;99.90
57636;DHT22;43465;50.728;4.160;2022-10-31T10:25:48;17.40;99.90
57636;DHT22;43465;50.728;4.160;2022-10-31T10:28:20;17.40;99.90
57636;DHT22;43465;50.728;4.160;2022-10-31T10:30:50;17.40;99.90
57636;DHT22;43465;50.728;4.160;2022-10-31T10:33:35;17.50;99.90
57636;DHT22;43465;50.728;4.160;2022-10-31T10:36:05;17.50;99.90
57636;DHT22;43465;50.728;4.160;2022-10-31T10:41:18;17.50;99.90
57636;DHT22;43465;50.728;4.160;2022-10-31T10:43:45;17.60;99.90
57636;DHT22;43465;50.728;4.160;2022-10-31T10:49:17;17.70;99.90
57636;DHT22;43465;50.728;4.160;2022-10-31T10:51:44;17.70;99.90
57636;DHT22;43465;50.728;4.160;2022-10-31T10:59:35;17.80;99.90
57636;DHT22;43465;50.728;4.160;2022-10-31T11:02:03;17.90;99.90
57636;DHT22;43465;50.728;4.160;2022-10-31T11:04:32;17.90;99.90
57636;DHT22;43465;50.728;4.160;2022-10-31T11:07:09;18.00;99.90
57636;DHT22;43465;50.728;4.160;2022-10-31T11:09:35;18.10;99.90
57636;DHT22;43465;50.728;4.160;2022-10-31T11:12:22;18.10;99.90
57636;DHT22;43465;50.728;4.160;2022-10-31T11:14:56;18.20;99.90
57636;DHT22;43465;50.728;4.160;2022-10-31T11:20:49;18.30;99.90
57636;DHT22;43465;50.728;4.160;2022-10-31T11:22:48;18.40;99.90
57636;DHT22;43465;50.728;4.160;2022-10-31T11:25:24;18.50;99.90
57636;DHT22;43465;50.728;4.160;2022-10-31T11:30:30;18.80;99.90
57636;DHT22;43465;50.728;4.160;2022-10-31T11:32:56;18.90;99.90
57636;DHT22;43465;50.728;4.160;2022-10-31T11:35:24;18.90;99.90
57636;DHT22;43465;50.728;4.160;2022-10-31T11:37:52;18.90;99.90
57636;DHT22;43465;50.728;4.160;2022-10-31T11:40:22;19.00;99.90
57636;DHT22;43465;50.728;4.160;2022-10-31T11:42:50;19.00;99.90
57636;DHT22;43465;50.728;4.160;2022-10-31T11:47:50;19.10;99.90
57636;DHT22;43465;50.728;4.160;2022-10-31T11:50:32;19.10;99.90
57636;DHT22;43465;50.728;4.160;2022-10-31T11:53:00;19.30;99.90
57636;DHT22;43465;50.728;4.160;2022-10-31T11:55:35;19.40;99.90
57636;DHT22;43465;50.728;4.160;2022-10-31T11:58:01;19.50;99.90
57636;DHT22;43465;50.728;4.160;2022-10-31T12:00:32;19.60;99.90
57636;DHT22;43465;50.728;4.160;2022-10-31T12:08:25;19.80;99.90
57636;DHT22;43465;50.728;4.160;2022-10-31T12:16:20;19.90;99.90
57636;DHT22;43465;50.728;4.160;2022-10-31T12:25:03;20.10;99.90
57636;DHT22;43465;50.728;4.160;2022-10-31T12:32:47;20.30;99.90
57636;DHT22;43465;50.728;4.160;2022-10-31T12:43:44;20.60;99.90
57636;DHT22;43465;50.728;4.160;2022-10-31T12:46:14;20.40;99.90
57636;DHT22;43465;50.728;4.160;2022-10-31T12:49:05;20.40;99.90
57636;DHT22;43465;50.728;4.160;2022-10-31T12:52:03;20.50;99.90
57636;DHT22;43465;50.728;4.160;2022-10-31T12:57:22;20.50;99.90
57636;DHT22;43465;50.728;4.160;2022-10-31T12:59:53;20.50;99.90
57636;DHT22;43465;50.728;4.160;2022-10-31T13:02:30;20.50;99.90
57636;DHT22;43465;50.728;4.160;2022-10-31T13:05:03;20.50;99.90
57636;DHT22;43465;50.728;4.160;2022-10-31T13:07:32;20.50;99.90
57636;DHT22;43465;50.728;4.160;2022-10-31T13:10:22;20.50;99.90
57636;DHT22;43465;50.728;4.160;2022-10-31T13:12:51;20.50;99.90
57636;DHT22;43465;50.728;4.160;2022-10-31T13:15:21;20.60;99.90
57636;DHT22;43465;50.728;4.160;2022-10-31T13:18:03;20.70;99.90
57636;DHT22;43465;50.728;4.160;2022-10-31T13:20:38;20.70;99.90
57636;DHT22;43465;50.728;4.160;2022-10-31T13:25:38;20.80;99.90
57636;DHT22;43465;50.728;4.160;2022-10-31T13:28:18;20.90;99.90
57636;DHT22;43465;50.728;4.160;2022-10-31T13:30:47;21.20;99.90
57636;DHT22;43465;50.728;4.160;2022-10-31T13:33:19;21.40;99.90
57636;DHT22;43465;50.728;4.160;2022-10-31T13:38:50;21.80;99.90
57636;DHT22;43465;50.728;4.160;2022-10-31T13:44:24;21.70;99.90
57636;DHT22;43465;50.728;4.160;2022-10-31T13:46:55;21.70;99.90
57636;DHT22;43465;50.728;4.160;2022-10-31T13:54:48;21.70;99.90
57636;DHT22;43465;50.728;4.160;2022-10-31T13:59:55;21.50;99.90
57636;DHT22;43465;50.728;4.160;2022-10-31T14:02:34;21.30;99.90
57636;DHT22;43465;50.728;4.160;2022-10-31T14:07:31;21.30;99.90
57636;DHT22;43465;50.728;4.160;2022-10-31T14:12:31;21.20;99.90
57636;DHT22;43465;50.728;4.160;2022-10-31T14:18:02;21.10;99.90
57636;DHT22;43465;50.728;4.160;2022-10-31T14:20:41;21.20;99.90
57636;DHT22;43465;50.728;4.160;2022-10-31T14:23:12;21.10;99.90
57636;DHT22;43465;50.728;4.160;2022-10-31T14:25:38;21.20;99.90
57636;DHT22;43465;50.728;4.160;2022-10-31T14:28:34;21.20;99.90
57636;DHT22;43465;50.728;4.160;2022-10-31T14:31:00;21.20;99.90
57636;DHT22;43465;50.728;4.160;2022-10-31T14:33:28;21.20;99.90
57636;DHT22;43465;50.728;4.160;2022-10-31T14:36:07;21.10;99.90
57636;DHT22;43465;50.728;4.160;2022-10-31T14:49:30;21.00;99.90
57636;DHT22;43465;50.728;4.160;2022-10-31T14:51:57;21.10;99.90
57636;DHT22;43465;50.728;4.160;2022-10-31T14:54:28;21.00;99.90
57636;DHT22;43465;50.728;4.160;2022-10-31T14:57:18;20.90;99.90
57636;DHT22;43465;50.728;4.160;2022-10-31T14:59:48;20.90;99.90
57636;DHT22;43465;50.728;4.160;2022-10-31T15:04:45;20.90;99.90
57636;DHT22;43465;50.728;4.160;2022-10-31T15:07:26;20.80;99.90
57636;DHT22;43465;50.728;4.160;2022-10-31T15:10:00;20.80;99.90
57636;DHT22;43465;50.728;4.160;2022-10-31T15:14:51;20.70;99.90
57636;DHT22;43465;50.728;4.160;2022-10-31T15:17:17;20.60;99.90
57636;DHT22;43465;50.728;4.160;2022-10-31T15:19:43;20.50;99.90
57636;DHT22;43465;50.728;4.160;2022-10-31T15:22:22;20.50;99.90
57636;DHT22;43465;50.728;4.160;2022-10-31T15:24:49;20.40;99.90
57636;DHT22;43465;50.728;4.160;2022-10-31T15:27:21;20.30;99.90
57636;DHT22;43465;50.728;4.160;2022-10-31T15:29:56;20.20;99.90
57636;DHT22;43465;50.728;4.160;2022-10-31T15:32:32;20.10;99.90
57636;DHT22;43465;50.728;4.160;2022-10-31T15:34:57;20.00;99.90
57636;DHT22;43465;50.728;4.160;2022-10-31T15:37:25;19.90;99.90
57636;DHT22;43465;50.728;4.160;2022-10-31T15:39:51;19.90;99.90
57636;DHT22;43465;50.728;4.160;2022-10-31T15:45:04;19.80;99.90
57636;DHT22;43465;50.728;4.160;2022-10-31T15:47:31;19.80;99.90
57636;DHT22;43465;50.728;4.160;2022-10-31T15:49:59;19.80;99.90
57636;DHT22;43465;50.728;4.160;2022-10-31T15:52:34;19.70;99.90
57636;DHT22;43465;50.728;4.160;2022-10-31T15:55:04;19.60;99.90
57636;DHT22;43465;50.728;4.160;2022-10-31T15:57:31;19.50;99.90
57636;DHT22;43465;50.728;4.160;2022-10-31T15:59:57;19.50;99.90
57636;DHT22;43465;50.728;4.160;2022-10-31T16:02:26;19.50;99.90
57636;DHT22;43465;50.728;4.160;2022-10-31T16:04:59;19.40;99.90
57636;DHT22;43465;50.728;4.160;2022-10-31T16:07:29;19.30;99.90
57636;DHT22;43465;50.728;4.160;2022-10-31T16:10:01;19.30;99.90
57636;DHT22;43465;50.728;4.160;2022-10-31T16:12:34;19.20;99.90
57636;DHT22;43465;50.728;4.160;2022-10-31T16:15:00;19.20;99.90
57636;DHT22;43465;50.728;4.160;2022-10-31T16:17:27;19.10;99.90
57636;DHT22;43465;50.728;4.160;2022-10-31T16:20:00;19.00;99.90
57636;DHT22;43465;50.728;4.160;2022-10-31T16:22:30;19.00;99.90
57636;DHT22;43465;50.728;4.160;2022-10-31T16:25:11;18.90;99.90
57636;DHT22;43465;50.728;4.160;2022-10-31T16:27:39;19.00;99.90
57636;DHT22;43465;50.728;4.160;2022-10-31T16:30:34;18.80;99.90
57636;DHT22;43465;50.728;4.160;2022-10-31T16:33:02;18.70;99.90
57636;DHT22;43465;50.728;4.160;2022-10-31T16:35:32;18.70;99.90
57636;DHT22;43465;50.728;4.160;2022-10-31T16:37:58;18.70;99.90
57636;DHT22;43465;50.728;4.160;2022-10-31T16:40:24;18.70;99.90
57636;DHT22;43465;50.728;4.160;2022-10-31T16:42:50;18.50;99.90
57636;DHT22;43465;50.728;4.160;2022-10-31T16:45:24;18.50;99.90
57636;DHT22;43465;50.728;4.160;2022-10-31T16:47:51;18.50;99.90
57636;DHT22;43465;50.728;4.160;2022-10-31T16:50:25;18.40;99.90
57636;DHT22;43465;50.728;4.160;2022-10-31T16:52:51;18.40;99.90
57636;DHT22;43465;50.728;4.160;2022-10-31T16:55:18;18.40;99.90
57636;DHT22;43465;50.728;4.160;2022-10-31T16:57:50;18.40;99.90
57636;DHT22;43465;50.728;4.160;2022-10-31T17:00:19;18.50;99.90
57636;DHT22;43465;50.728;4.160;2022-10-31T17:02:47;18.60;99.90
57636;DHT22;43465;50.728;4.160;2022-10-31T17:05:15;18.60;99.90
57636;DHT22;43465;50.728;4.160;2022-10-31T17:07:41;18.70;99.90
57636;DHT22;43465;50.728;4.160;2022-10-31T17:10:07;18.70;99.90
57636;DHT22;43465;50.728;4.160;2022-10-31T17:12:34;18.60;99.90
57636;DHT22;43465;50.728;4.160;2022-10-31T17:15:00;18.60;99.90
57636;DHT22;43465;50.728;4.160;2022-10-31T17:17:26;18.60;99.90
57636;DHT22;43465;50.728;4.160;2022-10-31T17:19:52;18.60;99.90
57636;DHT22;43465;50.728;4.160;2022-10-31T17:22:17;18.60;99.90
57636;DHT22;43465;50.728;4.160;2022-10-31T17:24:43;18.60;99.90
57636;DHT22;43465;50.728;4.160;2022-10-31T17:27:09;18.60;99.90
57636;DHT22;43465;50.728;4.160;2022-10-31T17:29:34;18.50;99.90
57636;DHT22;43465;50.728;4.160;2022-10-31T17:32:00;18.50;99.90
57636;DHT22;43465;50.728;4.160;2022-10-31T17:34:28;18.40;99.90
57636;DHT22;43465;50.728;4.160;2022-10-31T17:36:53;18.40;99.90
57636;DHT22;43465;50.728;4.160;2022-10-31T17:39:19;18.50;99.90
57636;DHT22;43465;50.728;4.160;2022-10-31T17:41:45;18.40;99.90
57636;DHT22;43465;50.728;4.160;2022-10-31T17:44:14;18.30;99.90
57636;DHT22;43465;50.728;4.160;2022-10-31T17:46:39;18.40;99.90
57636;DHT22;43465;50.728;4.160;2022-10-31T17:49:05;18.30;99.90
57636;DHT22;43465;50.728;4.160;2022-10-31T17:51:33;18.30;99.90
57636;DHT22;43465;50.728;4.160;2022-10-31T17:53:59;18.30;99.90
57636;DHT22;43465;50.728;4.160;2022-10-31T17:56:25;18.40;99.90
57636;DHT22;43465;50.728;4.160;2022-10-31T17:58:50;18.40;99.90
57636;DHT22;43465;50.728;4.160;2022-10-31T18:01:17;18.40;99.90
57636;DHT22;43465;50.728;4.160;2022-10-31T18:03:43;18.30;99.90
57636;DHT22;43465;50.728;4.160;2022-10-31T18:06:10;18.30;99.90
57636;DHT22;43465;50.728;4.160;2022-10-31T18:08:37;18.30;99.90
57636;DHT22;43465;50.728;4.160;2022-10-31T18:11:11;18.40;99.90
57636;DHT22;43465;50.728;4.160;2022-10-31T18:13:38;18.40;99.90
57636;DHT22;43465;50.728;4.160;2022-10-31T18:16:09;18.30;99.90
57636;DHT22;43465;50.728;4.160;2022-10-31T18:18:35;18.40;99.90